sensor_id;sensor_type;location;lat;lon;timestamp;pressure;altitude;pressure_sealevel;temperature;humidity
46448;BME280;32145;50.390;30.778;2023-05-03T00:35:43;100717.63;;;7.91;56.26
46448;BME280;32145;50.390;30.778;2023-05-03T00:38:40;100719.06;;;7.86;56.08
46448;BME280;32145;50.390;30.778;2023-05-03T00:41:37;100714.06;;;7.83;56.68
46448;BME280;32145;50.390;30.778;2023-05-03T00:44:33;100713.41;;;7.81;56.95
46448;BME280;32145;50.390;30.778;2023-05-03T00:47:30;100723.59;;;7.79;57.23
46448;BME280;32145;50.390;30.778;2023-05-03T00:50:26;100708.41;;;7.78;56.93
46448;BME280;32145;50.390;30.778;2023-05-03T00:53:24;100713.97;;;7.77;57.81
46448;BME280;32145;50.390;30.778;2023-05-03T00:56:21;100710.66;;;7.74;57.47
46448;BME280;32145;50.390;30.778;2023-05-03T00:59:18;100709.63;;;7.76;57.68
46448;BME280;32145;50.390;30.778;2023-05-03T01:02:15;100712.13;;;7.77;57.17
46448;BME280;32145;50.390;30.778;2023-05-03T01:05:11;100711.75;;;7.80;57.02
46448;BME280;32145;50.390;30.778;2023-05-03T01:08:13;100714.69;;;7.85;57.73
46448;BME280;32145;50.390;30.778;2023-05-03T01:11:20;100716.34;;;7.86;58.01
46448;BME280;32145;50.390;30.778;2023-05-03T01:14:23;100713.66;;;7.86;57.47
46448;BME280;32145;50.390;30.778;2023-05-03T01:17:27;100710.97;;;7.86;57.77
46448;BME280;32145;50.390;30.778;2023-05-03T01:20:25;100709.28;;;7.85;57.34
46448;BME280;32145;50.390;30.778;2023-05-03T01:23:28;100696.84;;;7.84;57.71
46448;BME280;32145;50.390;30.778;2023-05-03T01:26:29;100703.47;;;7.82;58.06
46448;BME280;32145;50.390;30.778;2023-05-03T01:29:25;100689.50;;;7.78;57.43
46448;BME280;32145;50.390;30.778;2023-05-03T01:32:28;100690.09;;;7.73;58.18
46448;BME280;32145;50.390;30.778;2023-05-03T01:35:28;100687.13;;;7.68;58.16
46448;BME280;32145;50.390;30.778;2023-05-03T01:38:23;100683.34;;;7.63;57.64
46448;BME280;32145;50.390;30.778;2023-05-03T01:41:18;100684.56;;;7.60;58.08
46448;BME280;32145;50.390;30.778;2023-05-03T01:44:18;100679.97;;;7.54;58.23
46448;BME280;32145;50.390;30.778;2023-05-03T01:47:14;100680.53;;;7.49;58.15
46448;BME280;32145;50.390;30.778;2023-05-03T01:50:11;100679.06;;;7.46;58.74
46448;BME280;32145;50.390;30.778;2023-05-03T01:53:07;100676.38;;;7.46;58.53
46448;BME280;32145;50.390;30.778;2023-05-03T01:56:04;100680.72;;;7.47;58.62
46448;BME280;32145;50.390;30.778;2023-05-03T01:59:00;100679.88;;;7.47;58.71
46448;BME280;32145;50.390;30.778;2023-05-03T02:01:58;100677.19;;;7.47;58.95
46448;BME280;32145;50.390;30.778;2023-05-03T02:04:54;100667.06;;;7.49;59.20
46448;BME280;32145;50.390;30.778;2023-05-03T02:07:50;100670.84;;;7.55;59.03
46448;BME280;32145;50.390;30.778;2023-05-03T02:10:45;100678.13;;;7.61;58.67
46448;BME280;32145;50.390;30.778;2023-05-03T02:13:39;100674.69;;;7.67;58.88
46448;BME280;32145;50.390;30.778;2023-05-03T02:16:33;100671.00;;;7.75;58.70
46448;BME280;32145;50.390;30.778;2023-05-03T02:19:29;100672.53;;;7.84;58.45
46448;BME280;32145;50.390;30.778;2023-05-03T02:22:25;100674.06;;;7.94;58.34
46448;BME280;32145;50.390;30.778;2023-05-03T02:25:22;100672.09;;;8.09;58.06
46448;BME280;32145;50.390;30.778;2023-05-03T02:28:18;100675.88;;;8.15;58.07
46448;BME280;32145;50.390;30.778;2023-05-03T02:31:14;100684.72;;;8.37;58.49
46448;BME280;32145;50.390;30.778;2023-05-03T02:34:11;100690.31;;;8.64;57.64
46448;BME280;32145;50.390;30.778;2023-05-03T02:37:08;100683.09;;;8.85;57.22
46448;BME280;32145;50.390;30.778;2023-05-03T02:40:06;100687.13;;;9.03;56.31
46448;BME280;32145;50.390;30.778;2023-05-03T02:43:02;100692.34;;;9.05;56.60
46448;BME280;32145;50.390;30.778;2023-05-03T02:45:58;100686.09;;;9.04;56.42
46448;BME280;32145;50.390;30.778;2023-05-03T02:48:54;100696.13;;;9.10;56.53
46448;BME280;32145;50.390;30.778;2023-05-03T02:51:51;100693.63;;;9.15;56.35
46448;BME280;32145;50.390;30.778;2023-05-03T02:54:48;100691.13;;;9.21;56.29
46448;BME280;32145;50.390;30.778;2023-05-03T02:57:45;100692.41;;;9.32;56.10
46448;BME280;32145;50.390;30.778;2023-05-03T03:00:41;100694.50;;;9.36;55.94
46448;BME280;32145;50.390;30.778;2023-05-03T03:03:38;100691.78;;;9.36;55.80
46448;BME280;32145;50.390;30.778;2023-05-03T03:06:34;100692.63;;;9.37;56.06
46448;BME280;32145;50.390;30.778;2023-05-03T03:09:30;100691.38;;;9.39;55.82
46448;BME280;32145;50.390;30.778;2023-05-03T03:12:26;100687.84;;;9.46;56.13
46448;BME280;32145;50.390;30.778;2023-05-03T03:15:20;100688.91;;;9.58;55.92
46448;BME280;32145;50.390;30.778;2023-05-03T03:18:14;100689.53;;;9.74;55.40
46448;BME280;32145;50.390;30.778;2023-05-03T03:21:09;100692.25;;;9.87;55.69
46448;BME280;32145;50.390;30.778;2023-05-03T03:24:05;100696.81;;;10.07;55.08
46448;BME280;32145;50.390;30.778;2023-05-03T03:27:02;100699.09;;;10.17;54.50
46448;BME280;32145;50.390;30.778;2023-05-03T03:29:54;100711.41;;;10.19;54.42
46448;BME280;32145;50.390;30.778;2023-05-03T03:32:51;100698.88;;;10.32;54.57
46448;BME280;32145;50.390;30.778;2023-05-03T03:35:45;100698.00;;;10.52;54.31
46448;BME280;32145;50.390;30.778;2023-05-03T03:38:39;100693.81;;;10.63;53.42
46448;BME280;32145;50.390;30.778;2023-05-03T03:41:35;100691.69;;;10.72;53.63
46448;BME280;32145;50.390;30.778;2023-05-03T03:44:32;100694.59;;;10.83;53.05
46448;BME280;32145;50.390;30.778;2023-05-03T03:47:30;100689.94;;;10.98;53.47
46448;BME280;32145;50.390;30.778;2023-05-03T03:50:26;100687.97;;;11.12;52.69
46448;BME280;32145;50.390;30.778;2023-05-03T03:53:22;100694.59;;;11.23;52.73
46448;BME280;32145;50.390;30.778;2023-05-03T03:56:19;100692.56;;;11.43;52.53
46448;BME280;32145;50.390;30.778;2023-05-03T03:59:15;100682.94;;;11.47;51.27
46448;BME280;32145;50.390;30.778;2023-05-03T04:03:18;100687.63;;;11.33;51.25
46448;BME280;32145;50.390;30.778;2023-05-03T04:06:14;100689.75;;;11.31;51.73
46448;BME280;32145;50.390;30.778;2023-05-03T04:09:10;100686.44;;;11.23;51.95
46448;BME280;32145;50.390;30.778;2023-05-03T04:12:05;100689.75;;;11.25;51.97
46448;BME280;32145;50.390;30.778;2023-05-03T04:14:59;100692.94;;;11.21;51.73
46448;BME280;32145;50.390;30.778;2023-05-03T04:17:55;100699.38;;;11.20;51.63
46448;BME280;32145;50.390;30.778;2023-05-03T04:21:49;100706.94;;;11.18;51.87
46448;BME280;32145;50.390;30.778;2023-05-03T04:24:46;100698.97;;;11.24;51.92
46448;BME280;32145;50.390;30.778;2023-05-03T04:27:43;100701.25;;;11.27;51.47
46448;BME280;32145;50.390;30.778;2023-05-03T04:30:39;100696.19;;;11.37;51.37
46448;BME280;32145;50.390;30.778;2023-05-03T04:33:35;100699.06;;;11.42;51.87
46448;BME280;32145;50.390;30.778;2023-05-03T04:36:31;100698.84;;;11.44;51.53
46448;BME280;32145;50.390;30.778;2023-05-03T04:39:27;100705.50;;;11.48;52.02
46448;BME280;32145;50.390;30.778;2023-05-03T04:42:22;100694.59;;;11.55;51.39
46448;BME280;32145;50.390;30.778;2023-05-03T04:45:16;100701.69;;;11.56;51.91
46448;BME280;32145;50.390;30.778;2023-05-03T04:48:10;100700.38;;;11.65;51.59
46448;BME280;32145;50.390;30.778;2023-05-03T04:51:04;100704.03;;;11.78;51.80
46448;BME280;32145;50.390;30.778;2023-05-03T04:53:59;100708.78;;;11.82;51.78
46448;BME280;32145;50.390;30.778;2023-05-03T04:56:55;100718.13;;;11.93;51.71
46448;BME280;32145;50.390;30.778;2023-05-03T04:59:49;100725.56;;;12.05;51.23
46448;BME280;32145;50.390;30.778;2023-05-03T05:02:43;100721.16;;;12.10;51.23
46448;BME280;32145;50.390;30.778;2023-05-03T05:05:38;100725.38;;;12.25;50.50
46448;BME280;32145;50.390;30.778;2023-05-03T05:08:32;100734.69;;;12.36;50.58
46448;BME280;32145;50.390;30.778;2023-05-03T05:11:26;100731.09;;;12.42;50.45
46448;BME280;32145;50.390;30.778;2023-05-03T05:14:22;100733.50;;;12.50;50.40
46448;BME280;32145;50.390;30.778;2023-05-03T05:17:18;100738.44;;;12.60;49.43
46448;BME280;32145;50.390;30.778;2023-05-03T05:20:15;100731.63;;;12.70;49.69
46448;BME280;32145;50.390;30.778;2023-05-03T05:23:11;100740.31;;;12.79;49.68
46448;BME280;32145;50.390;30.778;2023-05-03T05:26:07;100733.59;;;12.81;48.75
46448;BME280;32145;50.390;30.778;2023-05-03T05:29:04;100737.69;;;12.91;48.83
46448;BME280;32145;50.390;30.778;2023-05-03T05:32:01;100740.66;;;13.01;48.10
46448;BME280;32145;50.390;30.778;2023-05-03T05:34:57;100733.25;;;13.08;47.98
46448;BME280;32145;50.390;30.778;2023-05-03T05:37:54;100741.09;;;13.17;47.97
46448;BME280;32145;50.390;30.778;2023-05-03T05:40:50;100731.31;;;13.27;47.59
46448;BME280;32145;50.390;30.778;2023-05-03T05:43:46;100729.94;;;13.37;46.89
46448;BME280;32145;50.390;30.778;2023-05-03T05:46:43;100731.50;;;13.45;46.47
46448;BME280;32145;50.390;30.778;2023-05-03T05:49:41;100730.06;;;13.61;46.35
46448;BME280;32145;50.390;30.778;2023-05-03T05:52:37;100720.97;;;13.79;46.45
46448;BME280;32145;50.390;30.778;2023-05-03T05:55:34;100725.16;;;13.94;46.26
46448;BME280;32145;50.390;30.778;2023-05-03T05:58:30;100724.81;;;14.02;45.04
46448;BME280;32145;50.390;30.778;2023-05-03T06:01:26;100727.53;;;14.14;44.93
46448;BME280;32145;50.390;30.778;2023-05-03T06:04:21;100718.97;;;14.22;44.45
46448;BME280;32145;50.390;30.778;2023-05-03T06:07:16;100720.78;;;14.28;44.09
46448;BME280;32145;50.390;30.778;2023-05-03T06:10:11;100717.78;;;14.42;43.98
46448;BME280;32145;50.390;30.778;2023-05-03T06:13:05;100720.28;;;14.55;43.40
46448;BME280;32145;50.390;30.778;2023-05-03T06:15:59;100716.81;;;14.72;43.75
46448;BME280;32145;50.390;30.778;2023-05-03T06:18:54;100714.66;;;14.86;42.22
46448;BME280;32145;50.390;30.778;2023-05-03T06:21:48;100708.44;;;15.03;41.67
46448;BME280;32145;50.390;30.778;2023-05-03T06:24:44;100710.75;;;15.23;42.23
46448;BME280;32145;50.390;30.778;2023-05-03T06:27:38;100711.41;;;15.30;40.93
46448;BME280;32145;50.390;30.778;2023-05-03T06:30:33;100703.88;;;15.38;40.26
46448;BME280;32145;50.390;30.778;2023-05-03T06:33:27;100699.81;;;15.40;39.64
46448;BME280;32145;50.390;30.778;2023-05-03T06:36:21;100700.38;;;15.54;40.02
46448;BME280;32145;50.390;30.778;2023-05-03T06:39:18;100702.84;;;15.73;39.92
46448;BME280;32145;50.390;30.778;2023-05-03T06:42:15;100697.06;;;15.87;38.41
46448;BME280;32145;50.390;30.778;2023-05-03T06:45:12;100695.59;;;15.96;38.27
46448;BME280;32145;50.390;30.778;2023-05-03T06:48:08;100695.22;;;16.09;37.55
46448;BME280;32145;50.390;30.778;2023-05-03T06:51:05;100697.88;;;16.21;37.44
46448;BME280;32145;50.390;30.778;2023-05-03T06:54:01;100694.53;;;16.36;36.59
46448;BME280;32145;50.390;30.778;2023-05-03T06:56:58;100684.66;;;16.35;35.95
46448;BME280;32145;50.390;30.778;2023-05-03T06:59:56;100698.16;;;16.42;36.71
46448;BME280;32145;50.390;30.778;2023-05-03T07:02:52;100691.16;;;16.52;36.44
46448;BME280;32145;50.390;30.778;2023-05-03T07:05:48;100688.13;;;16.70;36.71
46448;BME280;32145;50.390;30.778;2023-05-03T07:08:44;100690.22;;;16.85;36.01
46448;BME280;32145;50.390;30.778;2023-05-03T07:11:41;100673.66;;;16.97;33.82
46448;BME280;32145;50.390;30.778;2023-05-03T07:14:37;100671.38;;;17.11;33.67
46448;BME280;32145;50.390;30.778;2023-05-03T07:17:35;100682.63;;;17.15;33.32
46448;BME280;32145;50.390;30.778;2023-05-03T07:20:31;100674.81;;;17.29;33.46
46448;BME280;32145;50.390;30.778;2023-05-03T07:23:27;100670.34;;;17.50;33.50
46448;BME280;32145;50.390;30.778;2023-05-03T07:26:24;100682.06;;;17.73;32.79
46448;BME280;32145;50.390;30.778;2023-05-03T07:29:18;100678.53;;;17.78;31.11
46448;BME280;32145;50.390;30.778;2023-05-03T07:32:13;100682.94;;;17.84;30.36
46448;BME280;32145;50.390;30.778;2023-05-03T07:35:09;100674.84;;;18.00;29.59
46448;BME280;32145;50.390;30.778;2023-05-03T07:38:03;100669.13;;;18.07;28.67
46448;BME280;32145;50.390;30.778;2023-05-03T07:40:57;100665.75;;;17.94;28.17
46448;BME280;32145;50.390;30.778;2023-05-03T07:43:51;100660.88;;;18.01;29.20
46448;BME280;32145;50.390;30.778;2023-05-03T07:46:48;100661.78;;;18.12;28.83
46448;BME280;32145;50.390;30.778;2023-05-03T07:49:44;100673.59;;;18.13;27.69
46448;BME280;32145;50.390;30.778;2023-05-03T07:52:40;100667.34;;;18.23;27.81
46448;BME280;32145;50.390;30.778;2023-05-03T07:55:34;100668.44;;;18.27;27.85
46448;BME280;32145;50.390;30.778;2023-05-03T07:58:28;100666.53;;;18.27;27.64
46448;BME280;32145;50.390;30.778;2023-05-03T08:01:23;100645.44;;;18.33;27.60
46448;BME280;32145;50.390;30.778;2023-05-03T08:04:19;100655.66;;;18.53;27.81
46448;BME280;32145;50.390;30.778;2023-05-03T08:07:16;100652.97;;;18.59;26.56
46448;BME280;32145;50.390;30.778;2023-05-03T08:10:14;100648.53;;;18.52;26.62
46448;BME280;32145;50.390;30.778;2023-05-03T08:13:10;100636.50;;;18.59;26.61
46448;BME280;32145;50.390;30.778;2023-05-03T08:16:06;100644.41;;;18.55;25.75
46448;BME280;32145;50.390;30.778;2023-05-03T08:19:03;100637.59;;;18.63;26.35
46448;BME280;32145;50.390;30.778;2023-05-03T08:21:59;100644.78;;;18.79;25.87
46448;BME280;32145;50.390;30.778;2023-05-03T08:24:55;100647.00;;;18.93;26.35
46448;BME280;32145;50.390;30.778;2023-05-03T08:27:51;100643.69;;;18.86;25.16
46448;BME280;32145;50.390;30.778;2023-05-03T08:30:45;100661.56;;;18.88;25.37
46448;BME280;32145;50.390;30.778;2023-05-03T08:33:39;100651.13;;;18.85;25.38
46448;BME280;32145;50.390;30.778;2023-05-03T08:36:33;100641.25;;;18.89;25.20
46448;BME280;32145;50.390;30.778;2023-05-03T08:39:28;100658.00;;;18.93;25.79
46448;BME280;32145;50.390;30.778;2023-05-03T08:42:22;100641.78;;;18.86;25.66
46448;BME280;32145;50.390;30.778;2023-05-03T08:45:20;100647.00;;;18.93;25.75
46448;BME280;32145;50.390;30.778;2023-05-03T08:48:16;100644.00;;;18.94;26.08
46448;BME280;32145;50.390;30.778;2023-05-03T08:51:13;100637.41;;;18.96;26.20
46448;BME280;32145;50.390;30.778;2023-05-03T08:54:11;100638.28;;;19.12;26.19
46448;BME280;32145;50.390;30.778;2023-05-03T08:57:09;100641.84;;;19.07;26.53
46448;BME280;32145;50.390;30.778;2023-05-03T09:00:07;100637.69;;;19.04;26.30
46448;BME280;32145;50.390;30.778;2023-05-03T09:03:06;100642.44;;;19.25;26.43
46448;BME280;32145;50.390;30.778;2023-05-03T09:06:00;100632.00;;;19.32;26.90
46448;BME280;32145;50.390;30.778;2023-05-03T09:08:44;100632.00;;;19.53;26.50
46448;BME280;32145;50.390;30.778;2023-05-03T09:11:39;100624.28;;;19.65;25.53
46448;BME280;32145;50.390;30.778;2023-05-03T09:14:40;100621.22;;;19.77;26.63
46448;BME280;32145;50.390;30.778;2023-05-03T09:17:29;100629.25;;;19.68;26.29
46448;BME280;32145;50.390;30.778;2023-05-03T09:20:33;100622.59;;;19.85;25.61
46448;BME280;32145;50.390;30.778;2023-05-03T09:23:28;100630.84;;;20.01;25.70
46448;BME280;32145;50.390;30.778;2023-05-03T09:26:29;100621.47;;;20.12;25.84
46448;BME280;32145;50.390;30.778;2023-05-03T09:29:27;100620.91;;;20.15;24.79
46448;BME280;32145;50.390;30.778;2023-05-03T09:32:21;100629.72;;;20.07;25.39
46448;BME280;32145;50.390;30.778;2023-05-03T09:35:18;100612.91;;;20.19;26.52
46448;BME280;32145;50.390;30.778;2023-05-03T09:38:24;100631.88;;;20.26;25.71
46448;BME280;32145;50.390;30.778;2023-05-03T09:41:26;100623.38;;;20.17;26.72
46448;BME280;32145;50.390;30.778;2023-05-03T09:44:16;100621.97;;;20.19;27.37
46448;BME280;32145;50.390;30.778;2023-05-03T09:47:05;100617.06;;;20.16;26.86
46448;BME280;32145;50.390;30.778;2023-05-03T09:50:01;100626.66;;;20.24;27.84
46448;BME280;32145;50.390;30.778;2023-05-03T09:53:00;100636.00;;;20.33;26.70
46448;BME280;32145;50.390;30.778;2023-05-03T09:55:58;100622.50;;;20.27;27.30
46448;BME280;32145;50.390;30.778;2023-05-03T09:58:57;100621.41;;;20.33;27.66
46448;BME280;32145;50.390;30.778;2023-05-03T10:01:55;100621.31;;;20.54;28.05
46448;BME280;32145;50.390;30.778;2023-05-03T10:04:52;100624.09;;;20.48;26.92
46448;BME280;32145;50.390;30.778;2023-05-03T10:07:49;100622.72;;;20.41;26.86
46448;BME280;32145;50.390;30.778;2023-05-03T10:10:48;100621.34;;;20.48;27.94
46448;BME280;32145;50.390;30.778;2023-05-03T10:13:46;100627.69;;;20.44;27.26
46448;BME280;32145;50.390;30.778;2023-05-03T10:16:47;100634.59;;;20.41;26.66
46448;BME280;32145;50.390;30.778;2023-05-03T10:19:50;100629.59;;;20.48;27.01
46448;BME280;32145;50.390;30.778;2023-05-03T10:23:06;100629.44;;;20.74;27.06
46448;BME280;32145;50.390;30.778;2023-05-03T10:28:33;100626.66;;;20.85;26.31
46448;BME280;32145;50.390;30.778;2023-05-03T10:31:45;100631.25;;;21.00;26.65
46448;BME280;32145;50.390;30.778;2023-05-03T10:34:42;100639.41;;;21.21;25.83
46448;BME280;32145;50.390;30.778;2023-05-03T10:37:40;100626.09;;;21.33;26.34
46448;BME280;32145;50.390;30.778;2023-05-03T10:40:40;100623.47;;;21.47;26.96
46448;BME280;32145;50.390;30.778;2023-05-03T10:43:43;100621.28;;;21.44;25.95
46448;BME280;32145;50.390;30.778;2023-05-03T10:46:37;100642.03;;;21.36;26.29
46448;BME280;32145;50.390;30.778;2023-05-03T10:49:31;100628.50;;;21.40;26.37
46448;BME280;32145;50.390;30.778;2023-05-03T10:52:47;100623.09;;;21.59;25.63
46448;BME280;32145;50.390;30.778;2023-05-03T10:55:59;100617.44;;;21.75;26.78
46448;BME280;32145;50.390;30.778;2023-05-03T10:58:55;100618.59;;;21.69;26.01
46448;BME280;32145;50.390;30.778;2023-05-03T11:01:50;100617.59;;;21.89;26.44
46448;BME280;32145;50.390;30.778;2023-05-03T11:04:47;100610.63;;;21.97;25.82
46448;BME280;32145;50.390;30.778;2023-05-03T11:07:44;100611.78;;;22.15;25.89
46448;BME280;32145;50.390;30.778;2023-05-03T11:10:42;100621.16;;;22.14;26.23
46448;BME280;32145;50.390;30.778;2023-05-03T11:13:39;100610.19;;;22.09;26.17
46448;BME280;32145;50.390;30.778;2023-05-03T11:16:37;100616.28;;;22.06;25.87
46448;BME280;32145;50.390;30.778;2023-05-03T11:19:33;100615.44;;;22.10;26.10
46448;BME280;32145;50.390;30.778;2023-05-03T11:22:30;100607.03;;;21.96;26.20
46448;BME280;32145;50.390;30.778;2023-05-03T11:25:27;100607.25;;;22.00;26.76
46448;BME280;32145;50.390;30.778;2023-05-03T11:28:21;100601.03;;;22.13;25.77
46448;BME280;32145;50.390;30.778;2023-05-03T11:31:16;100603.66;;;22.24;26.00
46448;BME280;32145;50.390;30.778;2023-05-03T11:34:12;100614.00;;;22.37;25.56
46448;BME280;32145;50.390;30.778;2023-05-03T11:37:07;100596.38;;;22.33;25.63
46448;BME280;32145;50.390;30.778;2023-05-03T11:40:02;100607.19;;;22.30;25.97
46448;BME280;32145;50.390;30.778;2023-05-03T11:42:57;100604.03;;;22.17;26.21
46448;BME280;32145;50.390;30.778;2023-05-03T11:45:55;100601.22;;;22.22;26.57
46448;BME280;32145;50.390;30.778;2023-05-03T11:48:50;100606.28;;;22.15;26.16
46448;BME280;32145;50.390;30.778;2023-05-03T11:51:46;100605.44;;;22.14;27.00
46448;BME280;32145;50.390;30.778;2023-05-03T11:54:42;100589.72;;;22.15;26.22
46448;BME280;32145;50.390;30.778;2023-05-03T11:57:38;100597.44;;;22.37;26.80
46448;BME280;32145;50.390;30.778;2023-05-03T12:00:35;100594.72;;;22.57;25.85
46448;BME280;32145;50.390;30.778;2023-05-03T12:03:32;100600.09;;;22.67;25.86
46448;BME280;32145;50.390;30.778;2023-05-03T12:06:29;100593.34;;;22.54;27.31
46448;BME280;32145;50.390;30.778;2023-05-03T12:09:27;100596.59;;;22.37;27.68
46448;BME280;32145;50.390;30.778;2023-05-03T12:12:21;100588.38;;;22.32;27.42
46448;BME280;32145;50.390;30.778;2023-05-03T12:15:26;100592.19;;;22.36;27.70
46448;BME280;32145;50.390;30.778;2023-05-03T12:18:20;100584.31;;;22.48;27.71
46448;BME280;32145;50.390;30.778;2023-05-03T12:21:14;100586.28;;;22.67;27.18
46448;BME280;32145;50.390;30.778;2023-05-03T12:24:09;100574.56;;;22.75;27.38
46448;BME280;32145;50.390;30.778;2023-05-03T12:27:05;100562.28;;;22.82;27.01
46448;BME280;32145;50.390;30.778;2023-05-03T12:29:59;100566.34;;;22.89;26.84
46448;BME280;32145;50.390;30.778;2023-05-03T12:32:53;100566.53;;;22.93;27.21
46448;BME280;32145;50.390;30.778;2023-05-03T12:35:47;100558.50;;;22.97;26.49
46448;BME280;32145;50.390;30.778;2023-05-03T12:38:42;100550.34;;;22.86;26.50
46448;BME280;32145;50.390;30.778;2023-05-03T12:41:36;100554.81;;;23.01;26.71
46448;BME280;32145;50.390;30.778;2023-05-03T12:44:34;100546.84;;;23.00;27.03
46448;BME280;32145;50.390;30.778;2023-05-03T12:47:30;100537.19;;;22.97;27.02
46448;BME280;32145;50.390;30.778;2023-05-03T12:50:27;100544.63;;;22.83;27.08
46448;BME280;32145;50.390;30.778;2023-05-03T12:53:24;100545.13;;;22.85;27.03
46448;BME280;32145;50.390;30.778;2023-05-03T12:56:20;100548.03;;;22.94;27.30
46448;BME280;32145;50.390;30.778;2023-05-03T12:59:16;100535.16;;;23.03;26.97
46448;BME280;32145;50.390;30.778;2023-05-03T13:02:14;100534.06;;;23.04;26.95
46448;BME280;32145;50.390;30.778;2023-05-03T13:05:10;100530.28;;;23.14;27.23
46448;BME280;32145;50.390;30.778;2023-05-03T13:08:06;100536.06;;;22.98;26.53
46448;BME280;32145;50.390;30.778;2023-05-03T13:11:03;100531.84;;;22.87;27.63
46448;BME280;32145;50.390;30.778;2023-05-03T13:13:59;100526.81;;;22.89;27.39
46448;BME280;32145;50.390;30.778;2023-05-03T13:16:55;100519.06;;;22.91;27.09
46448;BME280;32145;50.390;30.778;2023-05-03T13:19:53;100528.97;;;22.92;27.48
46448;BME280;32145;50.390;30.778;2023-05-03T13:22:49;100526.06;;;22.83;27.55
46448;BME280;32145;50.390;30.778;2023-05-03T13:25:44;100513.97;;;22.79;27.78
46448;BME280;32145;50.390;30.778;2023-05-03T13:28:38;100513.09;;;22.84;27.73
46448;BME280;32145;50.390;30.778;2023-05-03T13:31:32;100505.97;;;22.97;28.15
46448;BME280;32145;50.390;30.778;2023-05-03T13:34:26;100514.03;;;22.93;27.45
46448;BME280;32145;50.390;30.778;2023-05-03T13:37:22;100516.97;;;22.83;27.75
46448;BME280;32145;50.390;30.778;2023-05-03T13:40:16;100516.59;;;22.89;28.08
46448;BME280;32145;50.390;30.778;2023-05-03T13:43:12;100516.28;;;22.91;27.90
46448;BME280;32145;50.390;30.778;2023-05-03T13:46:09;100517.91;;;22.92;28.29
46448;BME280;32145;50.390;30.778;2023-05-03T13:49:06;100518.47;;;22.75;27.82
46448;BME280;32145;50.390;30.778;2023-05-03T13:52:02;100522.16;;;22.70;28.07
46448;BME280;32145;50.390;30.778;2023-05-03T13:55:00;100509.44;;;22.69;28.07
46448;BME280;32145;50.390;30.778;2023-05-03T13:57:57;100512.81;;;22.66;28.09
46448;BME280;32145;50.390;30.778;2023-05-03T14:00:53;100510.06;;;22.66;28.48
46448;BME280;32145;50.390;30.778;2023-05-03T14:03:49;100508.09;;;22.66;28.25
46448;BME280;32145;50.390;30.778;2023-05-03T14:06:44;100513.47;;;22.58;27.93
46448;BME280;32145;50.390;30.778;2023-05-03T14:09:38;100510.41;;;22.59;28.12
46448;BME280;32145;50.390;30.778;2023-05-03T14:12:36;100511.25;;;22.60;27.67
46448;BME280;32145;50.390;30.778;2023-05-03T14:15:37;100513.53;;;22.72;28.01
46448;BME280;32145;50.390;30.778;2023-05-03T14:18:33;100512.53;;;22.82;27.67
46448;BME280;32145;50.390;30.778;2023-05-03T14:21:30;100503.81;;;22.94;27.32
46448;BME280;32145;50.390;30.778;2023-05-03T14:24:24;100524.91;;;23.03;27.16
46448;BME280;32145;50.390;30.778;2023-05-03T14:27:18;100503.97;;;23.16;27.36
46448;BME280;32145;50.390;30.778;2023-05-03T14:30:14;100518.94;;;23.29;27.19
46448;BME280;32145;50.390;30.778;2023-05-03T14:33:09;100509.88;;;23.43;27.08
46448;BME280;32145;50.390;30.778;2023-05-03T14:36:07;100512.97;;;23.55;26.27
46448;BME280;32145;50.390;30.778;2023-05-03T14:39:02;100508.25;;;23.42;26.32
46448;BME280;32145;50.390;30.778;2023-05-03T14:41:56;100504.00;;;23.30;26.98
46448;BME280;32145;50.390;30.778;2023-05-03T14:44:50;100504.28;;;23.15;27.04
46448;BME280;32145;50.390;30.778;2023-05-03T14:47:46;100507.47;;;22.89;26.61
46448;BME280;32145;50.390;30.778;2023-05-03T14:50:40;100502.81;;;22.70;26.86
46448;BME280;32145;50.390;30.778;2023-05-03T14:53:34;100513.72;;;22.61;27.17
46448;BME280;32145;50.390;30.778;2023-05-03T14:56:29;100506.31;;;22.57;27.50
46448;BME280;32145;50.390;30.778;2023-05-03T14:59:23;100514.72;;;22.46;27.45
46448;BME280;32145;50.390;30.778;2023-05-03T15:02:17;100511.28;;;22.35;27.38
46448;BME280;32145;50.390;30.778;2023-05-03T15:05:15;100510.78;;;22.33;27.43
46448;BME280;32145;50.390;30.778;2023-05-03T15:08:13;100518.88;;;22.24;27.19
46448;BME280;32145;50.390;30.778;2023-05-03T15:11:10;100506.25;;;22.18;27.17
46448;BME280;32145;50.390;30.778;2023-05-03T15:14:04;100500.16;;;22.21;27.74
46448;BME280;32145;50.390;30.778;2023-05-03T15:16:58;100506.22;;;22.23;27.92
46448;BME280;32145;50.390;30.778;2023-05-03T15:19:53;100505.47;;;22.18;28.06
46448;BME280;32145;50.390;30.778;2023-05-03T15:22:49;100509.94;;;22.13;28.03
46448;BME280;32145;50.390;30.778;2023-05-03T15:25:43;100506.63;;;22.11;27.91
46448;BME280;32145;50.390;30.778;2023-05-03T15:28:37;100502.31;;;22.05;27.77
46448;BME280;32145;50.390;30.778;2023-05-03T15:31:31;100506.16;;;22.04;28.16
46448;BME280;32145;50.390;30.778;2023-05-03T15:34:26;100514.88;;;21.92;27.65
46448;BME280;32145;50.390;30.778;2023-05-03T15:37:20;100524.28;;;21.91;28.05
46448;BME280;32145;50.390;30.778;2023-05-03T15:40:15;100521.28;;;21.87;28.28
46448;BME280;32145;50.390;30.778;2023-05-03T15:43:09;100512.53;;;21.80;28.66
46448;BME280;32145;50.390;30.778;2023-05-03T15:46:04;100520.03;;;21.74;28.99
46448;BME280;32145;50.390;30.778;2023-05-03T15:48:58;100511.59;;;21.66;29.38
46448;BME280;32145;50.390;30.778;2023-05-03T15:51:54;100515.78;;;21.58;29.91